createdAt,value
2023-04-14T00:01:21.237Z,14.14
2023-04-14T00:03:50.493Z,14.13
2023-04-14T00:06:21.691Z,14.13
2023-04-14T00:08:50.984Z,14.13
2023-04-14T00:11:19.977Z,14.13
2023-04-14T00:13:48.452Z,14.13
2023-04-14T00:16:18.414Z,14.13
2023-04-14T00:18:46.964Z,14.13
2023-04-14T00:21:15.441Z,14.12
2023-04-14T00:23:47.002Z,14.11
2023-04-14T00:26:15.784Z,14.10
2023-04-14T00:28:44.972Z,14.09
2023-04-14T00:31:13.757Z,14.08
2023-04-14T00:33:42.758Z,14.07
2023-04-14T00:36:11.200Z,14.07
2023-04-14T00:38:40.649Z,14.07
2023-04-14T00:41:09.018Z,14.07
2023-04-14T00:43:37.808Z,14.08
2023-04-14T00:46:07.363Z,14.07
2023-04-14T00:48:36.416Z,14.08
2023-04-14T00:51:05.545Z,14.06
2023-04-14T00:53:35.217Z,14.06
2023-04-14T00:56:03.909Z,14.05
2023-04-14T00:58:32.479Z,14.04
2023-04-14T01:01:02.228Z,14.03
2023-04-14T01:03:32.893Z,14.02
2023-04-14T01:06:02.020Z,14.02
2023-04-14T01:08:30.702Z,14.02
2023-04-14T01:11:14.265Z,14.02
2023-04-14T01:14:01.820Z,14.03
2023-04-14T01:16:32.721Z,14.02
2023-04-14T01:19:05.185Z,14.01
2023-04-14T01:21:37.596Z,14.01
2023-04-14T01:24:21.288Z,13.99
2023-04-14T01:26:53.369Z,13.98
2023-04-14T01:29:51.442Z,13.97
2023-04-14T01:32:22.595Z,13.97
2023-04-14T01:34:53.488Z,13.96
2023-04-14T01:37:30.455Z,13.97
2023-04-14T01:40:11.602Z,13.97
2023-04-14T01:42:43.405Z,13.98
2023-04-14T01:45:34.264Z,13.97
2023-04-14T01:48:02.963Z,13.97
2023-04-14T01:50:31.917Z,13.96
2023-04-14T01:53:00.528Z,13.95
2023-04-14T01:55:29.384Z,13.94
2023-04-14T01:57:58.691Z,13.93
2023-04-14T02:00:27.287Z,13.92
2023-04-14T02:02:56.877Z,13.91
2023-04-14T02:05:25.652Z,13.90
2023-04-14T02:07:54.144Z,13.91
2023-04-14T02:10:22.525Z,13.91
2023-04-14T02:12:53.872Z,13.92
2023-04-14T02:15:42.318Z,13.92
2023-04-14T02:18:11.019Z,13.92
2023-04-14T02:20:45.050Z,13.91
2023-04-14T02:23:28.655Z,13.91
2023-04-14T02:26:12.494Z,13.89
2023-04-14T02:28:50.397Z,13.88
2023-04-14T02:31:21.991Z,13.87
2023-04-14T02:33:53.833Z,13.85
2023-04-14T02:36:28.240Z,13.85
2023-04-14T02:38:59.970Z,13.84
2023-04-14T02:41:29.179Z,13.85
2023-04-14T02:44:19.248Z,13.85
2023-04-14T02:47:07.888Z,13.85
2023-04-14T02:49:42.807Z,13.84
2023-04-14T02:52:12.877Z,13.84
2023-04-14T02:54:43.197Z,13.83
2023-04-14T02:57:14.645Z,13.82
2023-04-14T02:59:45.709Z,13.81
2023-04-14T03:02:19.335Z,13.80
2023-04-14T03:04:53.710Z,13.79
2023-04-14T03:07:30.182Z,13.79
2023-04-14T03:09:59.276Z,13.79
2023-04-14T03:12:30.124Z,13.80
2023-04-14T03:14:58.715Z,13.80
2023-04-14T03:17:27.396Z,13.81
2023-04-14T03:19:58.115Z,13.80
2023-04-14T03:22:28.466Z,13.80
2023-04-14T03:24:59.154Z,13.79
2023-04-14T03:27:28.343Z,13.78
2023-04-14T03:29:58.795Z,13.77
2023-04-14T03:32:37.124Z,13.77
2023-04-14T03:35:08.463Z,13.76
2023-04-14T03:37:39.839Z,13.77
2023-04-14T03:40:11.576Z,13.77
2023-04-14T03:42:44.989Z,13.77
2023-04-14T03:45:14.571Z,13.78
2023-04-14T03:47:44.145Z,13.78
2023-04-14T03:50:13.368Z,13.78
2023-04-14T03:52:41.950Z,13.78
2023-04-14T03:55:12.674Z,13.77
2023-04-14T03:57:44.244Z,13.77
2023-04-14T04:00:15.587Z,13.77
2023-04-14T04:03:06.450Z,13.77
2023-04-14T04:05:35.603Z,13.78
2023-04-14T04:08:04.286Z,13.79
2023-04-14T04:10:34.098Z,13.80
2023-04-14T04:13:03.397Z,13.81
2023-04-14T04:15:36.841Z,13.82
2023-04-14T04:18:07.426Z,13.84
2023-04-14T04:20:38.047Z,13.84
2023-04-14T04:23:07.051Z,13.84
2023-04-14T04:25:36.663Z,13.86
2023-04-14T04:28:12.307Z,13.87
2023-04-14T04:30:42.006Z,13.88
2023-04-14T04:33:12.108Z,13.90
2023-04-14T04:35:41.378Z,13.93
2023-04-14T04:38:11.599Z,13.97
2023-04-14T04:40:42.508Z,14.00
2023-04-14T04:43:22.447Z,14.04
2023-04-14T04:45:56.987Z,14.08
2023-04-14T04:48:26.010Z,14.12
2023-04-14T04:50:55.867Z,14.16
2023-04-14T04:53:24.243Z,14.20
2023-04-14T04:55:54.666Z,14.23
2023-04-14T04:58:23.162Z,14.26
2023-04-14T05:00:51.855Z,14.28
2023-04-14T05:03:21.355Z,14.29
2023-04-14T05:05:49.732Z,14.31
2023-04-14T05:08:18.832Z,14.32
2023-04-14T05:10:49.252Z,14.32
2023-04-14T05:13:19.986Z,14.34
2023-04-14T05:15:48.710Z,14.34
2023-04-14T05:18:21.646Z,14.34
2023-04-14T05:20:51.365Z,14.35
2023-04-14T05:23:19.954Z,14.35
2023-04-14T05:25:51.446Z,14.35
2023-04-14T05:28:20.383Z,14.35
2023-04-14T05:30:48.907Z,14.35
2023-04-14T05:33:18.070Z,14.35
2023-04-14T05:35:47.671Z,14.36
2023-04-14T05:38:16.186Z,14.36
2023-04-14T05:40:45.462Z,14.38
2023-04-14T05:43:17.540Z,14.39
2023-04-14T05:45:49.210Z,14.40
2023-04-14T05:48:19.711Z,14.41
2023-04-14T05:50:48.868Z,14.41
2023-04-14T05:53:17.279Z,14.42
2023-04-14T05:55:47.813Z,14.43
2023-04-14T05:58:16.394Z,14.44
2023-04-14T06:00:50.417Z,14.46
2023-04-14T06:03:33.896Z,14.47
2023-04-14T06:06:02.927Z,14.50
2023-04-14T06:08:31.836Z,14.52
2023-04-14T06:11:00.708Z,14.56
2023-04-14T06:13:31.532Z,14.60
2023-04-14T06:16:01.178Z,14.62
2023-04-14T06:18:29.758Z,14.65
2023-04-14T06:20:58.982Z,14.67
2023-04-14T06:23:27.568Z,14.69
2023-04-14T06:25:57.532Z,14.71
2023-04-14T06:28:27.113Z,14.74
2023-04-14T06:30:55.727Z,14.77
2023-04-14T06:33:24.172Z,14.81
2023-04-14T06:35:52.586Z,14.84
2023-04-14T06:38:22.715Z,14.90
2023-04-14T06:40:53.208Z,14.94
2023-04-14T06:43:22.021Z,14.99
2023-04-14T06:45:51.257Z,15.02
2023-04-14T06:48:19.799Z,15.03
2023-04-14T06:50:56.148Z,15.02
2023-04-14T06:53:25.043Z,15.02
2023-04-14T06:55:59.714Z,15.01
2023-04-14T06:58:31.288Z,14.99
2023-04-14T07:01:01.267Z,15.00
2023-04-14T07:03:31.397Z,15.01
2023-04-14T07:06:08.158Z,15.02
2023-04-14T07:08:38.202Z,15.05
2023-04-14T07:11:08.811Z,15.05
2023-04-14T07:13:37.790Z,15.06
2023-04-14T07:16:07.938Z,15.06
2023-04-14T07:18:36.826Z,15.05
2023-04-14T07:21:05.498Z,15.04
2023-04-14T07:23:37.852Z,15.03
2023-04-14T07:26:07.405Z,15.01
2023-04-14T07:28:35.874Z,15.00
2023-04-14T07:31:11.060Z,14.99
2023-04-14T07:33:40.681Z,14.99
2023-04-14T07:36:09.794Z,15.00
2023-04-14T07:38:38.243Z,15.02
2023-04-14T07:41:08.087Z,15.05
2023-04-14T07:43:36.665Z,15.08
2023-04-14T07:46:07.879Z,15.10
2023-04-14T07:48:37.028Z,15.14
2023-04-14T07:51:09.693Z,15.17
2023-04-14T07:53:42.549Z,15.21
2023-04-14T07:56:12.393Z,15.25
2023-04-14T07:58:43.215Z,15.27
2023-04-14T08:01:12.211Z,15.27
2023-04-14T08:03:43.538Z,15.27
2023-04-14T08:06:13.688Z,15.27
2023-04-14T08:08:43.587Z,15.26
2023-04-14T08:11:12.182Z,15.25
2023-04-14T08:13:41.169Z,15.24
2023-04-14T08:16:09.590Z,15.22
2023-04-14T08:18:40.535Z,15.20
2023-04-14T08:21:09.800Z,15.19
2023-04-14T08:23:39.087Z,15.17
2023-04-14T08:26:07.992Z,15.16
2023-04-14T08:28:37.524Z,15.16
2023-04-14T08:31:10.867Z,15.15
2023-04-14T08:33:40.173Z,15.15
2023-04-14T08:36:08.787Z,15.16
2023-04-14T08:38:41.225Z,15.16
2023-04-14T08:41:10.111Z,15.17
2023-04-14T08:43:39.419Z,15.18
2023-04-14T08:46:12.543Z,15.19
2023-04-14T08:48:42.425Z,15.20
